sensor_id;sensor_type;location;lat;lon;timestamp;P1;durP1;ratioP1;P2;durP2;ratioP2
2546;SDS011;1283;47.982;7.834;2023-12-20T00:00:17;1.67;;;0.70;;
2546;SDS011;1283;47.982;7.834;2023-12-20T00:02:44;0.57;;;0.52;;
2546;SDS011;1283;47.982;7.834;2023-12-20T00:05:12;1.10;;;0.70;;
2546;SDS011;1283;47.982;7.834;2023-12-20T00:07:38;2.88;;;0.85;;
2546;SDS011;1283;47.982;7.834;2023-12-20T00:10:05;1.83;;;0.80;;
2546;SDS011;1283;47.982;7.834;2023-12-20T00:12:32;0.77;;;0.65;;
2546;SDS011;1283;47.982;7.834;2023-12-20T00:15:00;2.60;;;1.00;;
2546;SDS011;1283;47.982;7.834;2023-12-20T00:17:26;1.88;;;0.70;;
2546;SDS011;1283;47.982;7.834;2023-12-20T00:19:53;1.02;;;0.75;;
2546;SDS011;1283;47.982;7.834;2023-12-20T00:22:19;1.10;;;0.80;;
2546;SDS011;1283;47.982;7.834;2023-12-20T00:24:46;1.20;;;0.80;;
2546;SDS011;1283;47.982;7.834;2023-12-20T00:27:12;1.23;;;0.77;;
2546;SDS011;1283;47.982;7.834;2023-12-20T00:29:39;1.58;;;1.02;;
2546;SDS011;1283;47.982;7.834;2023-12-20T00:32:09;2.03;;;1.23;;
2546;SDS011;1283;47.982;7.834;2023-12-20T00:34:35;1.13;;;0.90;;
2546;SDS011;1283;47.982;7.834;2023-12-20T00:37:02;1.25;;;0.80;;
2546;SDS011;1283;47.982;7.834;2023-12-20T00:39:28;1.10;;;0.75;;
2546;SDS011;1283;47.982;7.834;2023-12-20T00:41:55;1.17;;;0.85;;
2546;SDS011;1283;47.982;7.834;2023-12-20T00:44:21;0.90;;;0.65;;
2546;SDS011;1283;47.982;7.834;2023-12-20T00:46:48;1.85;;;0.90;;
2546;SDS011;1283;47.982;7.834;2023-12-20T00:49:15;3.50;;;0.85;;
2546;SDS011;1283;47.982;7.834;2023-12-20T00:51:42;2.53;;;1.10;;
2546;SDS011;1283;47.982;7.834;2023-12-20T00:54:08;2.38;;;0.93;;
2546;SDS011;1283;47.982;7.834;2023-12-20T00:56:35;2.25;;;0.90;;
2546;SDS011;1283;47.982;7.834;2023-12-20T00:59:01;1.23;;;1.08;;
2546;SDS011;1283;47.982;7.834;2023-12-20T01:01:28;1.92;;;0.98;;
2546;SDS011;1283;47.982;7.834;2023-12-20T01:03:54;4.35;;;1.05;;
2546;SDS011;1283;47.982;7.834;2023-12-20T01:06:22;1.00;;;0.70;;
2546;SDS011;1283;47.982;7.834;2023-12-20T01:08:48;0.95;;;0.70;;
2546;SDS011;1283;47.982;7.834;2023-12-20T01:11:15;1.63;;;0.98;;
2546;SDS011;1283;47.982;7.834;2023-12-20T01:13:41;1.73;;;1.05;;
2546;SDS011;1283;47.982;7.834;2023-12-20T01:16:10;1.05;;;0.80;;
2546;SDS011;1283;47.982;7.834;2023-12-20T01:18:37;2.03;;;1.05;;
2546;SDS011;1283;47.982;7.834;2023-12-20T01:21:03;1.88;;;0.95;;
2546;SDS011;1283;47.982;7.834;2023-12-20T01:23:32;1.90;;;1.00;;
2546;SDS011;1283;47.982;7.834;2023-12-20T01:25:58;1.17;;;0.73;;
2546;SDS011;1283;47.982;7.834;2023-12-20T01:28:25;0.90;;;0.70;;
2546;SDS011;1283;47.982;7.834;2023-12-20T01:30:52;1.20;;;0.93;;
2546;SDS011;1283;47.982;7.834;2023-12-20T01:33:18;1.38;;;0.80;;
2546;SDS011;1283;47.982;7.834;2023-12-20T01:35:45;2.50;;;0.90;;
2546;SDS011;1283;47.982;7.834;2023-12-20T01:38:12;1.25;;;0.90;;
2546;SDS011;1283;47.982;7.834;2023-12-20T01:40:39;1.98;;;0.90;;
2546;SDS011;1283;47.982;7.834;2023-12-20T01:43:07;1.33;;;0.85;;
2546;SDS011;1283;47.982;7.834;2023-12-20T01:45:34;1.98;;;0.90;;
2546;SDS011;1283;47.982;7.834;2023-12-20T01:48:01;1.38;;;0.98;;
2546;SDS011;1283;47.982;7.834;2023-12-20T01:50:28;1.55;;;1.25;;
2546;SDS011;1283;47.982;7.834;2023-12-20T01:52:56;0.80;;;0.70;;
2546;SDS011;1283;47.982;7.834;2023-12-20T01:55:23;0.75;;;0.65;;
2546;SDS011;1283;47.982;7.834;2023-12-20T01:57:51;1.45;;;0.70;;
2546;SDS011;1283;47.982;7.834;2023-12-20T02:00:18;0.90;;;0.60;;
2546;SDS011;1283;47.982;7.834;2023-12-20T02:02:48;0.95;;;0.77;;
2546;SDS011;1283;47.982;7.834;2023-12-20T02:05:15;1.25;;;0.70;;
2546;SDS011;1283;47.982;7.834;2023-12-20T02:07:42;1.05;;;0.68;;
2546;SDS011;1283;47.982;7.834;2023-12-20T02:10:08;0.65;;;0.50;;
2546;SDS011;1283;47.982;7.834;2023-12-20T02:12:34;1.00;;;0.68;;
2546;SDS011;1283;47.982;7.834;2023-12-20T02:15:03;0.85;;;0.60;;
2546;SDS011;1283;47.982;7.834;2023-12-20T02:17:30;1.83;;;0.70;;
2546;SDS011;1283;47.982;7.834;2023-12-20T02:19:57;0.75;;;0.50;;
2546;SDS011;1283;47.982;7.834;2023-12-20T02:22:25;0.60;;;0.52;;
2546;SDS011;1283;47.982;7.834;2023-12-20T02:24:52;1.80;;;0.80;;
2546;SDS011;1283;47.982;7.834;2023-12-20T02:27:18;0.82;;;0.63;;
2546;SDS011;1283;47.982;7.834;2023-12-20T02:29:46;1.50;;;0.70;;
2546;SDS011;1283;47.982;7.834;2023-12-20T02:32:13;0.80;;;0.55;;
2546;SDS011;1283;47.982;7.834;2023-12-20T02:34:39;1.50;;;0.90;;
2546;SDS011;1283;47.982;7.834;2023-12-20T02:37:06;0.90;;;0.68;;
2546;SDS011;1283;47.982;7.834;2023-12-20T02:39:34;0.80;;;0.70;;
2546;SDS011;1283;47.982;7.834;2023-12-20T02:42:00;0.85;;;0.70;;
2546;SDS011;1283;47.982;7.834;2023-12-20T02:44:26;1.00;;;0.90;;
2546;SDS011;1283;47.982;7.834;2023-12-20T02:46:53;2.08;;;0.73;;
2546;SDS011;1283;47.982;7.834;2023-12-20T02:49:19;1.00;;;0.85;;
2546;SDS011;1283;47.982;7.834;2023-12-20T02:51:46;2.92;;;0.80;;
2546;SDS011;1283;47.982;7.834;2023-12-20T02:54:12;1.13;;;0.90;;
2546;SDS011;1283;47.982;7.834;2023-12-20T02:56:40;1.13;;;0.85;;
2546;SDS011;1283;47.982;7.834;2023-12-20T02:59:07;2.25;;;0.88;;
2546;SDS011;1283;47.982;7.834;2023-12-20T03:01:33;1.88;;;1.13;;
2546;SDS011;1283;47.982;7.834;2023-12-20T03:04:00;1.60;;;1.02;;
2546;SDS011;1283;47.982;7.834;2023-12-20T03:06:26;1.48;;;1.05;;
2546;SDS011;1283;47.982;7.834;2023-12-20T03:08:53;1.25;;;0.80;;
2546;SDS011;1283;47.982;7.834;2023-12-20T03:11:19;1.10;;;0.90;;
2546;SDS011;1283;47.982;7.834;2023-12-20T03:13:47;0.98;;;0.80;;
2546;SDS011;1283;47.982;7.834;2023-12-20T03:16:13;0.90;;;0.70;;
2546;SDS011;1283;47.982;7.834;2023-12-20T03:18:41;1.00;;;0.80;;
2546;SDS011;1283;47.982;7.834;2023-12-20T03:21:08;1.02;;;0.75;;
2546;SDS011;1283;47.982;7.834;2023-12-20T03:23:34;1.00;;;0.80;;
2546;SDS011;1283;47.982;7.834;2023-12-20T03:26:01;1.20;;;0.70;;
2546;SDS011;1283;47.982;7.834;2023-12-20T03:28:27;0.77;;;0.60;;
2546;SDS011;1283;47.982;7.834;2023-12-20T03:30:55;1.05;;;0.90;;
2546;SDS011;1283;47.982;7.834;2023-12-20T03:33:21;1.10;;;0.80;;
2546;SDS011;1283;47.982;7.834;2023-12-20T03:35:48;1.30;;;0.90;;
2546;SDS011;1283;47.982;7.834;2023-12-20T03:38:14;1.40;;;1.00;;
2546;SDS011;1283;47.982;7.834;2023-12-20T03:40:41;1.48;;;0.95;;
2546;SDS011;1283;47.982;7.834;2023-12-20T03:43:07;0.90;;;0.80;;
2546;SDS011;1283;47.982;7.834;2023-12-20T03:45:34;1.20;;;0.90;;
2546;SDS011;1283;47.982;7.834;2023-12-20T03:48:01;2.25;;;0.80;;
2546;SDS011;1283;47.982;7.834;2023-12-20T03:50:28;1.35;;;0.77;;
2546;SDS011;1283;47.982;7.834;2023-12-20T03:52:55;0.70;;;0.70;;
2546;SDS011;1283;47.982;7.834;2023-12-20T03:55:21;2.92;;;0.80;;
2546;SDS011;1283;47.982;7.834;2023-12-20T03:57:48;1.15;;;0.88;;
2546;SDS011;1283;47.982;7.834;2023-12-20T04:00:14;1.00;;;0.70;;
2546;SDS011;1283;47.982;7.834;2023-12-20T04:02:41;1.17;;;0.82;;
2546;SDS011;1283;47.982;7.834;2023-12-20T04:05:09;0.63;;;0.63;;
2546;SDS011;1283;47.982;7.834;2023-12-20T04:07:36;0.85;;;0.70;;
2546;SDS011;1283;47.982;7.834;2023-12-20T04:10:03;1.67;;;0.77;;
2546;SDS011;1283;47.982;7.834;2023-12-20T04:12:30;1.13;;;0.80;;
2546;SDS011;1283;47.982;7.834;2023-12-20T04:14:57;1.13;;;0.82;;
2546;SDS011;1283;47.982;7.834;2023-12-20T04:17:23;1.10;;;0.95;;
2546;SDS011;1283;47.982;7.834;2023-12-20T04:19:50;1.20;;;0.80;;
2546;SDS011;1283;47.982;7.834;2023-12-20T04:22:18;0.90;;;0.80;;
2546;SDS011;1283;47.982;7.834;2023-12-20T04:24:44;0.80;;;0.68;;
2546;SDS011;1283;47.982;7.834;2023-12-20T04:27:11;0.95;;;0.70;;
2546;SDS011;1283;47.982;7.834;2023-12-20T04:29:38;0.77;;;0.60;;
2546;SDS011;1283;47.982;7.834;2023-12-20T04:32:04;0.95;;;0.50;;
2546;SDS011;1283;47.982;7.834;2023-12-20T04:34:31;0.85;;;0.43;;
2546;SDS011;1283;47.982;7.834;2023-12-20T04:36:58;0.60;;;0.43;;
2546;SDS011;1283;47.982;7.834;2023-12-20T04:39:25;0.77;;;0.65;;
2546;SDS011;1283;47.982;7.834;2023-12-20T04:41:52;1.02;;;0.50;;
2546;SDS011;1283;47.982;7.834;2023-12-20T04:44:18;1.05;;;0.60;;
2546;SDS011;1283;47.982;7.834;2023-12-20T04:46:45;1.23;;;0.45;;
2546;SDS011;1283;47.982;7.834;2023-12-20T04:49:11;0.73;;;0.50;;
2546;SDS011;1283;47.982;7.834;2023-12-20T04:51:38;0.80;;;0.50;;
2546;SDS011;1283;47.982;7.834;2023-12-20T04:54:04;0.57;;;0.55;;
2546;SDS011;1283;47.982;7.834;2023-12-20T04:56:32;0.55;;;0.50;;
2546;SDS011;1283;47.982;7.834;2023-12-20T04:58:58;1.38;;;0.57;;
2546;SDS011;1283;47.982;7.834;2023-12-20T05:01:25;0.60;;;0.60;;
2546;SDS011;1283;47.982;7.834;2023-12-20T05:03:51;0.63;;;0.50;;
2546;SDS011;1283;47.982;7.834;2023-12-20T05:06:18;0.93;;;0.70;;
2546;SDS011;1283;47.982;7.834;2023-12-20T05:08:44;0.90;;;0.68;;
2546;SDS011;1283;47.982;7.834;2023-12-20T05:11:11;1.50;;;0.90;;
2546;SDS011;1283;47.982;7.834;2023-12-20T05:13:40;1.90;;;0.70;;
2546;SDS011;1283;47.982;7.834;2023-12-20T05:16:07;1.15;;;0.68;;
2546;SDS011;1283;47.982;7.834;2023-12-20T05:18:34;0.75;;;0.68;;
2546;SDS011;1283;47.982;7.834;2023-12-20T05:21:00;1.02;;;0.80;;
2546;SDS011;1283;47.982;7.834;2023-12-20T05:23:27;0.50;;;0.50;;
2546;SDS011;1283;47.982;7.834;2023-12-20T05:25:53;0.50;;;0.50;;
2546;SDS011;1283;47.982;7.834;2023-12-20T05:28:19;0.70;;;0.70;;
2546;SDS011;1283;47.982;7.834;2023-12-20T05:30:47;2.55;;;0.70;;
2546;SDS011;1283;47.982;7.834;2023-12-20T05:33:14;0.80;;;0.80;;
2546;SDS011;1283;47.982;7.834;2023-12-20T05:35:40;0.82;;;0.80;;
2546;SDS011;1283;47.982;7.834;2023-12-20T05:38:07;1.27;;;0.80;;
2546;SDS011;1283;47.982;7.834;2023-12-20T05:40:33;0.70;;;0.70;;
2546;SDS011;1283;47.982;7.834;2023-12-20T05:42:59;2.90;;;0.90;;
2546;SDS011;1283;47.982;7.834;2023-12-20T05:45:26;0.95;;;0.77;;
2546;SDS011;1283;47.982;7.834;2023-12-20T05:47:54;1.15;;;0.85;;
2546;SDS011;1283;47.982;7.834;2023-12-20T05:50:20;1.08;;;0.70;;
2546;SDS011;1283;47.982;7.834;2023-12-20T05:52:47;1.10;;;0.80;;
2546;SDS011;1283;47.982;7.834;2023-12-20T05:55:13;0.80;;;0.70;;
2546;SDS011;1283;47.982;7.834;2023-12-20T05:57:40;6.60;;;0.68;;
2546;SDS011;1283;47.982;7.834;2023-12-20T06:00:08;2.42;;;0.88;;
2546;SDS011;1283;47.982;7.834;2023-12-20T06:02:35;0.88;;;0.80;;
2546;SDS011;1283;47.982;7.834;2023-12-20T06:05:04;0.80;;;0.73;;
2546;SDS011;1283;47.982;7.834;2023-12-20T06:07:31;0.82;;;0.80;;
2546;SDS011;1283;47.982;7.834;2023-12-20T06:09:58;0.75;;;0.70;;
2546;SDS011;1283;47.982;7.834;2023-12-20T06:12:25;0.60;;;0.60;;
2546;SDS011;1283;47.982;7.834;2023-12-20T06:14:52;1.20;;;0.70;;
2546;SDS011;1283;47.982;7.834;2023-12-20T06:17:18;2.35;;;0.80;;
2546;SDS011;1283;47.982;7.834;2023-12-20T06:19:45;1.00;;;0.63;;
2546;SDS011;1283;47.982;7.834;2023-12-20T06:22:14;2.03;;;0.73;;
2546;SDS011;1283;47.982;7.834;2023-12-20T06:24:41;0.50;;;0.50;;
2546;SDS011;1283;47.982;7.834;2023-12-20T06:27:07;1.85;;;0.60;;
2546;SDS011;1283;47.982;7.834;2023-12-20T06:29:34;1.15;;;0.60;;
2546;SDS011;1283;47.982;7.834;2023-12-20T06:32:00;1.60;;;0.60;;
2546;SDS011;1283;47.982;7.834;2023-12-20T06:34:27;0.63;;;0.57;;
2546;SDS011;1283;47.982;7.834;2023-12-20T06:36:53;0.50;;;0.40;;
2546;SDS011;1283;47.982;7.834;2023-12-20T06:39:21;0.63;;;0.50;;
2546;SDS011;1283;47.982;7.834;2023-12-20T06:41:47;0.60;;;0.50;;
2546;SDS011;1283;47.982;7.834;2023-12-20T06:44:14;1.05;;;0.55;;
2546;SDS011;1283;47.982;7.834;2023-12-20T06:46:40;1.88;;;0.68;;
2546;SDS011;1283;47.982;7.834;2023-12-20T06:49:07;1.45;;;0.57;;
2546;SDS011;1283;47.982;7.834;2023-12-20T06:51:33;1.05;;;0.70;;
2546;SDS011;1283;47.982;7.834;2023-12-20T06:54:00;1.58;;;0.60;;
2546;SDS011;1283;47.982;7.834;2023-12-20T06:56:28;0.90;;;0.50;;
2546;SDS011;1283;47.982;7.834;2023-12-20T06:58:55;1.38;;;0.80;;
2546;SDS011;1283;47.982;7.834;2023-12-20T07:01:21;1.08;;;0.60;;
2546;SDS011;1283;47.982;7.834;2023-12-20T07:03:48;1.35;;;0.50;;
2546;SDS011;1283;47.982;7.834;2023-12-20T07:06:15;0.80;;;0.55;;
2546;SDS011;1283;47.982;7.834;2023-12-20T07:08:42;0.82;;;0.65;;
2546;SDS011;1283;47.982;7.834;2023-12-20T07:11:08;1.95;;;0.90;;
2546;SDS011;1283;47.982;7.834;2023-12-20T07:13:36;5.35;;;0.90;;
2546;SDS011;1283;47.982;7.834;2023-12-20T07:16:03;1.85;;;1.00;;
2546;SDS011;1283;47.982;7.834;2023-12-20T07:18:29;0.82;;;0.70;;
2546;SDS011;1283;47.982;7.834;2023-12-20T07:20:56;0.65;;;0.65;;
2546;SDS011;1283;47.982;7.834;2023-12-20T07:23:22;1.02;;;0.63;;
2546;SDS011;1283;47.982;7.834;2023-12-20T07:25:50;2.63;;;0.70;;
2546;SDS011;1283;47.982;7.834;2023-12-20T07:28:17;0.77;;;0.52;;
2546;SDS011;1283;47.982;7.834;2023-12-20T07:30:45;1.42;;;0.70;;
2546;SDS011;1283;47.982;7.834;2023-12-20T07:33:11;0.65;;;0.52;;
2546;SDS011;1283;47.982;7.834;2023-12-20T07:35:38;1.15;;;0.50;;
2546;SDS011;1283;47.982;7.834;2023-12-20T07:38:04;0.77;;;0.50;;
2546;SDS011;1283;47.982;7.834;2023-12-20T07:40:31;1.27;;;0.80;;
2546;SDS011;1283;47.982;7.834;2023-12-20T07:42:58;1.40;;;0.80;;
2546;SDS011;1283;47.982;7.834;2023-12-20T07:45:25;0.88;;;0.60;;
2546;SDS011;1283;47.982;7.834;2023-12-20T07:47:52;1.95;;;0.60;;
2546;SDS011;1283;47.982;7.834;2023-12-20T07:50:19;1.20;;;0.65;;
2546;SDS011;1283;47.982;7.834;2023-12-20T07:52:45;2.40;;;0.70;;
2546;SDS011;1283;47.982;7.834;2023-12-20T07:55:12;1.20;;;0.80;;
2546;SDS011;1283;47.982;7.834;2023-12-20T07:57:38;1.20;;;0.50;;
2546;SDS011;1283;47.982;7.834;2023-12-20T08:00:05;1.95;;;1.00;;
2546;SDS011;1283;47.982;7.834;2023-12-20T08:02:32;2.88;;;2.08;;
2546;SDS011;1283;47.982;7.834;2023-12-20T08:05:00;1.45;;;1.05;;
2546;SDS011;1283;47.982;7.834;2023-12-20T08:07:26;1.23;;;0.90;;
2546;SDS011;1283;47.982;7.834;2023-12-20T08:09:53;1.88;;;1.10;;
2546;SDS011;1283;47.982;7.834;2023-12-20T08:12:20;1.20;;;0.70;;
2546;SDS011;1283;47.982;7.834;2023-12-20T08:14:46;1.77;;;1.00;;
2546;SDS011;1283;47.982;7.834;2023-12-20T08:17:13;1.13;;;0.80;;
2546;SDS011;1283;47.982;7.834;2023-12-20T08:19:41;1.65;;;1.00;;
2546;SDS011;1283;47.982;7.834;2023-12-20T08:22:09;1.00;;;0.80;;
2546;SDS011;1283;47.982;7.834;2023-12-20T08:24:35;1.08;;;0.70;;
2546;SDS011;1283;47.982;7.834;2023-12-20T08:27:02;0.60;;;0.60;;
2546;SDS011;1283;47.982;7.834;2023-12-20T08:29:28;1.30;;;0.70;;
2546;SDS011;1283;47.982;7.834;2023-12-20T08:31:55;2.35;;;0.95;;
2546;SDS011;1283;47.982;7.834;2023-12-20T08:34:21;2.63;;;0.95;;
2546;SDS011;1283;47.982;7.834;2023-12-20T08:36:48;0.90;;;0.68;;
2546;SDS011;1283;47.982;7.834;2023-12-20T08:39:16;1.65;;;0.95;;
2546;SDS011;1283;47.982;7.834;2023-12-20T08:41:42;2.55;;;0.73;;
2546;SDS011;1283;47.982;7.834;2023-12-20T08:44:09;1.08;;;0.82;;
2546;SDS011;1283;47.982;7.834;2023-12-20T08:46:35;1.77;;;0.80;;
2546;SDS011;1283;47.982;7.834;2023-12-20T08:49:02;1.35;;;0.70;;
2546;SDS011;1283;47.982;7.834;2023-12-20T08:51:29;2.45;;;0.90;;
2546;SDS011;1283;47.982;7.834;2023-12-20T08:53:55;1.65;;;0.90;;
2546;SDS011;1283;47.982;7.834;2023-12-20T08:56:23;1.30;;;0.93;;
2546;SDS011;1283;47.982;7.834;2023-12-20T08:58:49;0.75;;;0.60;;
2546;SDS011;1283;47.982;7.834;2023-12-20T09:01:16;1.52;;;0.80;;
2546;SDS011;1283;47.982;7.834;2023-12-20T09:03:42;0.80;;;0.70;;
2546;SDS011;1283;47.982;7.834;2023-12-20T09:06:09;1.15;;;0.70;;
2546;SDS011;1283;47.982;7.834;2023-12-20T09:08:35;0.73;;;0.60;;
2546;SDS011;1283;47.982;7.834;2023-12-20T09:11:02;1.25;;;0.70;;
2546;SDS011;1283;47.982;7.834;2023-12-20T09:13:30;1.48;;;0.85;;
2546;SDS011;1283;47.982;7.834;2023-12-20T09:15:57;4.25;;;1.25;;
2546;SDS011;1283;47.982;7.834;2023-12-20T09:18:23;3.95;;;1.13;;
2546;SDS011;1283;47.982;7.834;2023-12-20T09:20:50;2.50;;;1.40;;
2546;SDS011;1283;47.982;7.834;2023-12-20T09:23:16;2.17;;;1.40;;
2546;SDS011;1283;47.982;7.834;2023-12-20T09:25:43;3.58;;;1.40;;
2546;SDS011;1283;47.982;7.834;2023-12-20T09:28:09;2.38;;;1.45;;
2546;SDS011;1283;47.982;7.834;2023-12-20T09:30:37;3.70;;;1.50;;
2546;SDS011;1283;47.982;7.834;2023-12-20T09:33:05;3.35;;;1.35;;
2546;SDS011;1283;47.982;7.834;2023-12-20T09:35:32;3.17;;;1.55;;
2546;SDS011;1283;47.982;7.834;2023-12-20T09:37:58;2.03;;;1.40;;
2546;SDS011;1283;47.982;7.834;2023-12-20T09:40:25;1.70;;;1.27;;
2546;SDS011;1283;47.982;7.834;2023-12-20T09:42:55;2.40;;;1.60;;
2546;SDS011;1283;47.982;7.834;2023-12-20T09:45:23;2.92;;;1.60;;
2546;SDS011;1283;47.982;7.834;2023-12-20T09:47:51;2.70;;;1.85;;
2546;SDS011;1283;47.982;7.834;2023-12-20T09:50:19;2.50;;;1.75;;
2546;SDS011;1283;47.982;7.834;2023-12-20T09:52:46;2.25;;;1.50;;
2546;SDS011;1283;47.982;7.834;2023-12-20T09:55:16;4.20;;;1.85;;
2546;SDS011;1283;47.982;7.834;2023-12-20T09:57:43;2.70;;;1.73;;
2546;SDS011;1283;47.982;7.834;2023-12-20T10:00:10;4.82;;;2.03;;
2546;SDS011;1283;47.982;7.834;2023-12-20T10:02:38;2.72;;;1.98;;
2546;SDS011;1283;47.982;7.834;2023-12-20T10:05:06;3.72;;;2.28;;
2546;SDS011;1283;47.982;7.834;2023-12-20T10:07:34;4.53;;;2.03;;
2546;SDS011;1283;47.982;7.834;2023-12-20T10:10:01;3.47;;;2.25;;
2546;SDS011;1283;47.982;7.834;2023-12-20T10:12:28;5.03;;;2.75;;
2546;SDS011;1283;47.982;7.834;2023-12-20T10:14:54;7.78;;;2.90;;
2546;SDS011;1283;47.982;7.834;2023-12-20T10:17:21;5.32;;;2.67;;
2546;SDS011;1283;47.982;7.834;2023-12-20T10:19:48;3.75;;;2.40;;
2546;SDS011;1283;47.982;7.834;2023-12-20T10:22:16;3.75;;;2.40;;
2546;SDS011;1283;47.982;7.834;2023-12-20T10:24:42;5.18;;;2.50;;
2546;SDS011;1283;47.982;7.834;2023-12-20T10:27:09;5.60;;;2.80;;
2546;SDS011;1283;47.982;7.834;2023-12-20T10:29:35;6.30;;;2.47;;
2546;SDS011;1283;47.982;7.834;2023-12-20T10:34:48;4.47;;;2.35;;
2546;SDS011;1283;47.982;7.834;2023-12-20T10:37:16;9.18;;;2.60;;
2546;SDS011;1283;47.982;7.834;2023-12-20T10:39:43;3.42;;;1.92;;
2546;SDS011;1283;47.982;7.834;2023-12-20T10:42:09;4.30;;;2.03;;
2546;SDS011;1283;47.982;7.834;2023-12-20T10:44:37;5.57;;;2.28;;
2546;SDS011;1283;47.982;7.834;2023-12-20T10:47:04;5.13;;;2.20;;
2546;SDS011;1283;47.982;7.834;2023-12-20T10:49:30;3.92;;;2.10;;
2546;SDS011;1283;47.982;7.834;2023-12-20T10:51:57;2.63;;;2.15;;
2546;SDS011;1283;47.982;7.834;2023-12-20T10:54:27;4.68;;;2.17;;
2546;SDS011;1283;47.982;7.834;2023-12-20T10:56:53;3.50;;;2.13;;
2546;SDS011;1283;47.982;7.834;2023-12-20T10:59:20;4.07;;;2.13;;
2546;SDS011;1283;47.982;7.834;2023-12-20T11:01:48;3.78;;;1.98;;
2546;SDS011;1283;47.982;7.834;2023-12-20T11:04:18;6.32;;;1.73;;
2546;SDS011;1283;47.982;7.834;2023-12-20T11:06:47;3.97;;;2.00;;
2546;SDS011;1283;47.982;7.834;2023-12-20T11:09:19;4.68;;;2.30;;
2546;SDS011;1283;47.982;7.834;2023-12-20T11:11:59;5.95;;;2.00;;
2546;SDS011;1283;47.982;7.834;2023-12-20T11:14:37;4.18;;;2.10;;
2546;SDS011;1283;47.982;7.834;2023-12-20T11:17:07;5.97;;;1.77;;
2546;SDS011;1283;47.982;7.834;2023-12-20T11:19:36;7.00;;;2.03;;
2546;SDS011;1283;47.982;7.834;2023-12-20T11:22:03;3.83;;;1.80;;
2546;SDS011;1283;47.982;7.834;2023-12-20T11:24:30;3.53;;;1.75;;
2546;SDS011;1283;47.982;7.834;2023-12-20T11:26:59;4.35;;;1.95;;
2546;SDS011;1283;47.982;7.834;2023-12-20T11:29:29;5.35;;;2.42;;
2546;SDS011;1283;47.982;7.834;2023-12-20T11:31:56;5.70;;;2.05;;
2546;SDS011;1283;47.982;7.834;2023-12-20T11:34:22;2.42;;;1.80;;
2546;SDS011;1283;47.982;7.834;2023-12-20T11:36:56;6.30;;;1.92;;
2546;SDS011;1283;47.982;7.834;2023-12-20T11:39:23;3.85;;;1.30;;
2546;SDS011;1283;47.982;7.834;2023-12-20T11:41:51;6.15;;;2.00;;
2546;SDS011;1283;47.982;7.834;2023-12-20T11:44:19;4.35;;;2.03;;
2546;SDS011;1283;47.982;7.834;2023-12-20T11:46:46;4.35;;;1.50;;
2546;SDS011;1283;47.982;7.834;2023-12-20T11:49:12;5.90;;;2.28;;
2546;SDS011;1283;47.982;7.834;2023-12-20T11:51:40;5.10;;;1.73;;
2546;SDS011;1283;47.982;7.834;2023-12-20T11:54:07;7.75;;;1.45;;
2546;SDS011;1283;47.982;7.834;2023-12-20T11:56:34;10.13;;;1.52;;
2546;SDS011;1283;47.982;7.834;2023-12-20T11:59:01;4.93;;;1.42;;
2546;SDS011;1283;47.982;7.834;2023-12-20T12:01:28;4.93;;;1.73;;
2546;SDS011;1283;47.982;7.834;2023-12-20T12:04:02;4.75;;;1.30;;
2546;SDS011;1283;47.982;7.834;2023-12-20T12:06:28;6.85;;;1.35;;
2546;SDS011;1283;47.982;7.834;2023-12-20T12:08:55;5.43;;;1.20;;
2546;SDS011;1283;47.982;7.834;2023-12-20T12:11:21;7.28;;;1.33;;
2546;SDS011;1283;47.982;7.834;2023-12-20T12:13:48;5.63;;;1.33;;
2546;SDS011;1283;47.982;7.834;2023-12-20T12:16:16;4.10;;;1.55;;
2546;SDS011;1283;47.982;7.834;2023-12-20T12:18:44;4.28;;;1.38;;
2546;SDS011;1283;47.982;7.834;2023-12-20T12:21:11;8.50;;;1.40;;
2546;SDS011;1283;47.982;7.834;2023-12-20T12:23:45;3.78;;;1.40;;
2546;SDS011;1283;47.982;7.834;2023-12-20T12:26:12;4.78;;;1.25;;
2546;SDS011;1283;47.982;7.834;2023-12-20T12:28:39;4.00;;;1.25;;
2546;SDS011;1283;47.982;7.834;2023-12-20T12:31:06;2.60;;;1.05;;
2546;SDS011;1283;47.982;7.834;2023-12-20T12:33:32;6.97;;;1.58;;
2546;SDS011;1283;47.982;7.834;2023-12-20T12:36:01;3.33;;;1.10;;
2546;SDS011;1283;47.982;7.834;2023-12-20T12:38:29;3.50;;;1.10;;
2546;SDS011;1283;47.982;7.834;2023-12-20T12:40:56;4.20;;;1.17;;
2546;SDS011;1283;47.982;7.834;2023-12-20T12:43:22;7.03;;;1.23;;
2546;SDS011;1283;47.982;7.834;2023-12-20T12:45:49;8.07;;;1.58;;
2546;SDS011;1283;47.982;7.834;2023-12-20T12:48:16;10.82;;;1.58;;
2546;SDS011;1283;47.982;7.834;2023-12-20T12:50:42;3.70;;;1.30;;
2546;SDS011;1283;47.982;7.834;2023-12-20T12:53:10;5.68;;;1.35;;
2546;SDS011;1283;47.982;7.834;2023-12-20T12:55:37;7.40;;;1.55;;
2546;SDS011;1283;47.982;7.834;2023-12-20T12:58:03;5.75;;;1.38;;
2546;SDS011;1283;47.982;7.834;2023-12-20T13:00:30;4.40;;;1.25;;
2546;SDS011;1283;47.982;7.834;2023-12-20T13:02:56;16.40;;;5.22;;
2546;SDS011;1283;47.982;7.834;2023-12-20T13:05:23;6.78;;;1.33;;
2546;SDS011;1283;47.982;7.834;2023-12-20T13:07:50;8.43;;;1.55;;
2546;SDS011;1283;47.982;7.834;2023-12-20T13:10:18;2.25;;;0.88;;
2546;SDS011;1283;47.982;7.834;2023-12-20T13:12:44;5.38;;;1.38;;
2546;SDS011;1283;47.982;7.834;2023-12-20T13:15:11;3.67;;;1.00;;
2546;SDS011;1283;47.982;7.834;2023-12-20T13:17:38;8.52;;;1.00;;
2546;SDS011;1283;47.982;7.834;2023-12-20T13:20:05;5.90;;;0.98;;
2546;SDS011;1283;47.982;7.834;2023-12-20T13:22:32;3.33;;;0.95;;
2546;SDS011;1283;47.982;7.834;2023-12-20T13:24:59;4.75;;;1.30;;
2546;SDS011;1283;47.982;7.834;2023-12-20T13:27:28;2.25;;;0.90;;
2546;SDS011;1283;47.982;7.834;2023-12-20T13:29:55;4.70;;;0.90;;
2546;SDS011;1283;47.982;7.834;2023-12-20T13:32:21;8.07;;;1.60;;
2546;SDS011;1283;47.982;7.834;2023-12-20T13:34:48;9.57;;;1.50;;
2546;SDS011;1283;47.982;7.834;2023-12-20T13:37:14;5.32;;;1.38;;
2546;SDS011;1283;47.982;7.834;2023-12-20T13:39:41;4.38;;;1.10;;
2546;SDS011;1283;47.982;7.834;2023-12-20T13:42:07;8.43;;;1.38;;
2546;SDS011;1283;47.982;7.834;2023-12-20T13:44:35;5.68;;;1.25;;
2546;SDS011;1283;47.982;7.834;2023-12-20T13:47:01;6.80;;;1.98;;
2546;SDS011;1283;47.982;7.834;2023-12-20T13:49:28;8.65;;;1.23;;
2546;SDS011;1283;47.982;7.834;2023-12-20T13:51:55;2.80;;;1.20;;
2546;SDS011;1283;47.982;7.834;2023-12-20T13:54:22;5.15;;;1.15;;
2546;SDS011;1283;47.982;7.834;2023-12-20T13:56:49;5.82;;;1.20;;
2546;SDS011;1283;47.982;7.834;2023-12-20T13:59:15;6.30;;;1.30;;
2546;SDS011;1283;47.982;7.834;2023-12-20T14:01:43;5.03;;;1.50;;
2546;SDS011;1283;47.982;7.834;2023-12-20T14:04:09;5.68;;;1.05;;
2546;SDS011;1283;47.982;7.834;2023-12-20T14:06:36;7.13;;;1.38;;
2546;SDS011;1283;47.982;7.834;2023-12-20T14:09:03;6.50;;;2.45;;
2546;SDS011;1283;47.982;7.834;2023-12-20T14:11:29;5.30;;;1.40;;
2546;SDS011;1283;47.982;7.834;2023-12-20T14:13:56;5.22;;;1.60;;
2546;SDS011;1283;47.982;7.834;2023-12-20T14:16:23;4.00;;;1.80;;
2546;SDS011;1283;47.982;7.834;2023-12-20T14:18:51;3.72;;;1.73;;
2546;SDS011;1283;47.982;7.834;2023-12-20T14:21:18;3.28;;;1.67;;
2546;SDS011;1283;47.982;7.834;2023-12-20T14:23:44;4.30;;;1.60;;
2546;SDS011;1283;47.982;7.834;2023-12-20T14:26:11;3.60;;;1.48;;
2546;SDS011;1283;47.982;7.834;2023-12-20T14:28:40;7.47;;;1.83;;
2546;SDS011;1283;47.982;7.834;2023-12-20T14:31:06;6.05;;;1.88;;
2546;SDS011;1283;47.982;7.834;2023-12-20T14:33:33;4.00;;;1.77;;
2546;SDS011;1283;47.982;7.834;2023-12-20T14:36:01;3.83;;;1.80;;
2546;SDS011;1283;47.982;7.834;2023-12-20T14:38:30;3.88;;;1.60;;
2546;SDS011;1283;47.982;7.834;2023-12-20T14:40:56;5.60;;;1.70;;
2546;SDS011;1283;47.982;7.834;2023-12-20T14:43:23;4.13;;;1.80;;
2546;SDS011;1283;47.982;7.834;2023-12-20T14:45:49;9.02;;;1.67;;
2546;SDS011;1283;47.982;7.834;2023-12-20T14:48:16;7.28;;;1.80;;
2546;SDS011;1283;47.982;7.834;2023-12-20T14:50:43;8.60;;;1.70;;
2546;SDS011;1283;47.982;7.834;2023-12-20T14:53:14;6.82;;;1.48;;
2546;SDS011;1283;47.982;7.834;2023-12-20T14:55:41;4.22;;;1.35;;
2546;SDS011;1283;47.982;7.834;2023-12-20T14:58:08;11.82;;;1.90;;
2546;SDS011;1283;47.982;7.834;2023-12-20T15:00:34;3.65;;;1.60;;
2546;SDS011;1283;47.982;7.834;2023-12-20T15:03:00;9.00;;;1.75;;
2546;SDS011;1283;47.982;7.834;2023-12-20T15:05:29;7.82;;;1.42;;
2546;SDS011;1283;47.982;7.834;2023-12-20T15:07:55;3.63;;;1.40;;
2546;SDS011;1283;47.982;7.834;2023-12-20T15:10:23;10.07;;;1.70;;
2546;SDS011;1283;47.982;7.834;2023-12-20T15:12:49;6.45;;;1.63;;
2546;SDS011;1283;47.982;7.834;2023-12-20T15:15:16;5.07;;;1.40;;